Athena, Oregon
Current Conditions -  °F | °C
As of 7:53 AM on Saturday 22 Nov 2014 (Local Time) from KPDT Reporting Station
Clear Clear  
Wind Chill: 37°   Ceiling: Unl
Heat Index: 42°   Visibility: 10mi
Dew Point: 35°   Wind: 8mph
Humidity: 76%   Direction: 190°S
Pressure: 29.73"   Gusts: 21mph
Location:  45.81°N, 118.49°W
Report Text: KPDT 221553Z 19007G18KT 10SM CLR 06/02 A2973 RMK AO2 SLP065 T00560017
Loading
Personal Weather Stations






























Interactive Weather Map New forecast layout! Learn more

10-Day Weather Forecast

Advertisements
Track Severe Weather on mobile